Time;durP1;ratioP1;P1;durP2;ratioP2;P2;SDS_P1;SDS_P2;PMS_P1;PMS_P2;Temp;Humidity;BMP_temperature;BMP_pressure;BME280_temperature;BME280_humidity;BME280_pressure;Samples;Min_cycle;Max_cycle;Signal;HPM_P1;HPM_P2
2023/10/28 00:02:20;;;;;;;;;;;;;;;8.78;100.00;99405.75;5044180;28;1510;-73
2023/10/28 00:04:45;;;;;;;;;;;;;;;8.78;100.00;99400.59;5049670;28;1469;-73
2023/10/28 00:07:10;;;;;;;;;;;;;;;8.80;100.00;99398.66;5044987;28;1321;-73
2023/10/28 00:09:35;;;;;;;;;;;;;;;8.82;100.00;99408.84;5047662;28;1045;-72
2023/10/28 00:12:01;;;;;;;;;;;;;;;8.85;100.00;99417.13;5043438;28;1882;-73
2023/10/28 00:14:26;;;;;;;;;;;;;;;8.86;100.00;99423.91;5047634;28;1576;-73
2023/10/28 00:16:51;;;;;;;;;;;;;;;8.89;100.00;99413.28;5041998;28;1166;-73
2023/10/28 00:19:17;;;;;;;;;;;;;;;8.91;100.00;99413.94;5047666;28;1084;-72
2023/10/28 00:21:42;;;;;;;;;;;;;;;8.93;100.00;99409.44;5042600;28;1199;-74
2023/10/28 00:24:07;;;;;;;;;;;;;;;8.95;100.00;99414.47;5041979;28;1081;-73
2023/10/28 00:26:34;;;;;;;;;;;;;;;8.97;100.00;99417.69;5045790;28;1222;-74
2023/10/28 00:28:59;;;;;;;;;;;;;;;8.98;100.00;99422.72;5050953;28;1090;-72
2023/10/28 00:31:24;;;;;;;;;;;;;;;9.00;100.00;99410.47;5045773;28;1148;-74
2023/10/28 00:33:51;;;;;;;;;;;;;;;9.02;100.00;99413.72;5050940;28;1993;-73
2023/10/28 00:36:16;;;;;;;;;;;;;;;9.03;100.00;99420.50;5050241;28;1297;-74
2023/10/28 00:38:42;;;;;;;;;;;;;;;9.07;100.00;99425.38;5051023;28;1164;-74
2023/10/28 00:41:07;;;;;;;;;;;;;;;9.07;100.00;99420.22;5049690;28;1640;-73
2023/10/28 00:43:32;;;;;;;;;;;;;;;9.08;100.00;99416.66;5049190;28;1193;-74
2023/10/28 00:45:59;;;;;;;;;;;;;;;9.12;100.00;99418.81;5048647;28;972;-72
2023/10/28 00:48:24;;;;;;;;;;;;;;;9.12;100.00;99417.97;5050942;28;1198;-75
2023/10/28 00:50:50;;;;;;;;;;;;;;;9.14;100.00;99426.41;5040698;28;1306;-74
2023/10/28 00:53:17;;;;;;;;;;;;;;;9.17;100.00;99431.25;5041489;28;1945;-74
2023/10/28 00:55:42;;;;;;;;;;;;;;;9.16;100.00;99425.28;5048373;28;1227;-75
2023/10/28 00:58:08;;;;;;;;;;;;;;;9.18;100.00;99430.31;5049165;28;1466;-74
2023/10/28 01:00:33;;;;;;;;;;;;;;;9.18;100.00;99432.91;5041895;28;1306;-72
2023/10/28 01:02:58;;;;;;;;;;;;;;;9.19;100.00;99424.19;5049872;28;1327;-73
2023/10/28 01:05:24;;;;;;;;;;;;;;;9.18;100.00;99422.56;5049862;28;1259;-73
2023/10/28 01:07:49;;;;;;;;;;;;;;;9.19;100.00;99434.53;5053101;28;1502;-74
2023/10/28 01:10:28;;;;;;;;;;;;;;;9.18;100.00;99425.97;5050164;28;1279;-74
2023/10/28 01:12:53;;;;;;;;;;;;;;;9.19;100.00;99419.00;5050876;28;1918;-73
2023/10/28 01:15:19;;;;;;;;;;;;;;;9.18;100.00;99425.97;5044501;28;1654;-74
2023/10/28 01:17:44;;;;;;;;;;;;;;;9.17;100.00;99420.91;5035634;28;1413;-75
2023/10/28 01:20:10;;;;;;;;;;;;;;;9.18;100.00;99422.56;5043841;28;1087;-73
2023/10/28 01:22:36;;;;;;;;;;;;;;;9.17;100.00;99420.91;5042137;28;1172;-73
2023/10/28 01:25:01;;;;;;;;;;;;;;;9.17;100.00;99420.91;5044758;28;1379;-76
2023/10/28 01:27:26;;;;;;;;;;;;;;;9.17;100.00;99420.91;5044640;28;1052;-74
2023/10/28 01:29:51;;;;;;;;;;;;;;;9.17;100.00;99418.31;5040921;28;1434;-73
2023/10/28 01:32:17;;;;;;;;;;;;;;;9.17;100.00;99411.38;5043917;28;1898;-72
2023/10/28 01:34:52;;;;;;;;;;;;;;;9.17;100.00;99413.16;5050871;28;1375;-77
2023/10/28 01:37:18;;;;;;;;;;;;;;;9.18;100.00;99417.41;5048457;28;1462;-78
2023/10/28 01:39:46;;;;;;;;;;;;;;;9.18;100.00;99418.19;5041347;28;1356;-76
2023/10/28 01:42:13;;;;;;;;;;;;;;;9.18;100.00;99415.63;5045577;28;1293;-75
2023/10/28 01:44:38;;;;;;;;;;;;;;;9.17;100.00;99418.31;5041663;28;1204;-76
2023/10/28 01:47:03;;;;;;;;;;;;;;;9.17;100.00;99420.91;5044675;28;1250;-77
2023/10/28 01:49:31;;;;;;;;;;;;;;;9.17;100.00;99415.75;5045083;28;1117;-75
2023/10/28 01:51:56;;;;;;;;;;;;;;;9.16;100.00;99419.28;5044190;28;1222;-75
2023/10/28 01:54:22;;;;;;;;;;;;;;;9.15;100.00;99422.84;5043977;28;1272;-75
2023/10/28 01:56:47;;;;;;;;;;;;;;;9.15;100.00;99417.69;5044790;28;1157;-76
2023/10/28 01:59:12;;;;;;;;;;;;;;;9.15;100.00;99422.84;5043284;28;1144;-75
2023/10/28 02:01:38;;;;;;;;;;;;;;;9.15;100.00;99422.84;5051213;28;1261;-76
2023/10/28 02:04:06;;;;;;;;;;;;;;;9.14;100.00;99422.03;5047465;28;1235;-76
2023/10/28 02:06:31;;;;;;;;;;;;;;;9.14;100.00;99421.22;5043889;28;1842;-75
2023/10/28 02:08:56;;;;;;;;;;;;;;;9.14;100.00;99421.22;5048227;28;1445;-75
2023/10/28 02:11:23;;;;;;;;;;;;;;;9.14;100.00;99426.41;5049874;28;1273;-75
2023/10/28 02:13:48;;;;;;;;;;;;;;;9.13;100.00;99417.03;5048262;28;1894;-76
2023/10/28 02:16:14;;;;;;;;;;;;;;;9.13;100.00;99415.25;5046248;28;1355;-76
2023/10/28 02:18:40;;;;;;;;;;;;;;;9.13;100.00;99414.44;5045792;28;1217;-76
2023/10/28 02:21:05;;;;;;;;;;;;;;;9.12;100.00;99418.81;5042415;28;1101;-75
2023/10/28 02:23:31;;;;;;;;;;;;;;;9.12;100.00;99417.97;5046369;28;1151;-75
2023/10/28 02:25:56;;;;;;;;;;;;;;;9.11;100.00;99411.16;5046358;28;1074;-77
2023/10/28 02:28:21;;;;;;;;;;;;;;;9.11;100.00;99417.16;5039676;28;1456;-76
2023/10/28 02:30:46;;;;;;;;;;;;;;;9.13;100.00;99417.03;5048638;28;1064;-76
2023/10/28 02:33:11;;;;;;;;;;;;;;;9.11;100.00;99411.16;5037107;28;1890;-78
2023/10/28 02:35:38;;;;;;;;;;;;;;;9.11;100.00;99422.31;5041046;28;1147;-80
2023/10/28 02:38:03;;;;;;;;;;;;;;;9.11;100.00;99416.34;5038523;28;1161;-75
2023/10/28 02:40:28;;;;;;;;;;;;;;;9.12;100.00;99417.97;5040028;28;1045;-77
2023/10/28 02:42:53;;;;;;;;;;;;;;;9.10;100.00;99404.38;5041045;28;1356;-75
2023/10/28 02:45:19;;;;;;;;;;;;;;;9.08;100.00;99414.88;5036438;28;1620;-76
2023/10/28 02:47:44;;;;;;;;;;;;;;;9.09;100.00;99413.09;5046191;28;1080;-77
2023/10/28 02:50:10;;;;;;;;;;;;;;;9.11;100.00;99416.34;5043081;28;1135;-77
2023/10/28 02:52:35;;;;;;;;;;;;;;;9.11;100.00;99416.34;5046585;28;1911;-75
2023/10/28 02:55:01;;;;;;;;;;;;;;;9.11;100.00;99416.34;5049256;28;1334;-75
2023/10/28 02:57:26;;;;;;;;;;;;;;;9.10;100.00;99422.50;5048692;28;1011;-77
2023/10/28 02:59:51;;;;;;;;;;;;;;;9.10;100.00;99425.06;5047998;28;1410;-76
2023/10/28 03:02:16;;;;;;;;;;;;;;;9.10;100.00;99430.25;5047040;28;1171;-75
2023/10/28 03:04:42;;;;;;;;;;;;;;;9.10;100.00;99430.25;5048574;28;1315;-77
2023/10/28 03:07:07;;;;;;;;;;;;;;;9.10;100.00;99420.72;5050091;28;1323;-75
2023/10/28 03:09:33;;;;;;;;;;;;;;;9.11;100.00;99421.53;5048222;28;1544;-75
2023/10/28 03:11:58;;;;;;;;;;;;;;;9.12;100.00;99428.31;5041367;28;1212;-75
2023/10/28 03:14:23;;;;;;;;;;;;;;;9.12;100.00;99425.72;5045141;28;1902;-76
2023/10/28 03:16:48;;;;;;;;;;;;;;;9.13;100.00;99419.63;5045827;28;1325;-76
2023/10/28 03:19:14;;;;;;;;;;;;;;;9.12;100.00;99423.13;5049629;28;1421;-75
2023/10/28 03:21:39;;;;;;;;;;;;;;;9.12;100.00;99428.31;5048122;28;1404;-76
2023/10/28 03:24:05;;;;;;;;;;;;;;;9.13;100.00;99435.94;5051502;28;1160;-76
2023/10/28 03:26:32;;;;;;;;;;;;;;;9.14;100.00;99421.22;5048371;28;1192;-75
2023/10/28 03:28:57;;;;;;;;;;;;;;;9.15;100.00;99418.50;5046999;28;1276;-75
2023/10/28 03:31:22;;;;;;;;;;;;;;;9.14;100.00;99421.22;5047297;28;1347;-77
2023/10/28 03:33:48;;;;;;;;;;;;;;;9.14;100.00;99426.41;5045232;28;1887;-75
2023/10/28 03:36:13;;;;;;;;;;;;;;;9.14;100.00;99426.41;5048176;28;1197;-76
2023/10/28 03:38:39;;;;;;;;;;;;;;;9.14;100.00;99427.22;5040310;28;1414;-76
2023/10/28 03:41:10;;;;;;;;;;;;;;;9.17;100.00;99431.25;5042521;28;1398;-76
2023/10/28 03:43:36;;;;;;;;;;;;;;;9.16;100.00;99427.06;5040869;28;1296;-76
2023/10/28 03:46:02;;;;;;;;;;;;;;;9.16;100.00;99424.47;5047421;28;1167;-76
2023/10/28 03:48:28;;;;;;;;;;;;;;;9.16;100.00;99429.66;5044343;28;1339;-75
2023/10/28 03:51:01;;;;;;;;;;;;;;;9.15;100.00;99431.44;5043583;28;1439;-75
2023/10/28 03:53:27;;;;;;;;;;;;;;;9.16;100.00;99429.66;5047071;28;1963;-76
2023/10/28 03:55:52;;;;;;;;;;;;;;;9.14;100.00;99427.22;5054748;28;1316;-75
2023/10/28 03:58:17;;;;;;;;;;;;;;;9.14;100.00;99427.22;5050299;28;1235;-75
2023/10/28 04:00:43;;;;;;;;;;;;;;;9.17;100.00;99426.09;5045581;28;1568;-76
2023/10/28 04:03:08;;;;;;;;;;;;;;;9.14;100.00;99426.41;5051495;28;1001;-75
2023/10/28 04:05:33;;;;;;;;;;;;;;;9.15;100.00;99428.03;5047688;28;1348;-75
2023/10/28 04:07:58;;;;;;;;;;;;;;;9.13;100.00;99425.59;5058881;28;1171;-75
2023/10/28 04:10:24;;;;;;;;;;;;;;;9.14;100.00;99418.66;5051356;28;1221;-76
2023/10/28 04:12:50;;;;;;;;;;;;;;;9.13;100.00;99424.78;5049096;28;2012;-75
2023/10/28 04:15:16;;;;;;;;;;;;;;;9.13;100.00;99424.78;5052340;28;1351;-77
2023/10/28 04:17:41;;;;;;;;;;;;;;;9.13;100.00;99424.78;5052623;28;1161;-75
2023/10/28 04:20:07;;;;;;;;;;;;;;;9.12;100.00;99423.97;5054552;28;1033;-75
2023/10/28 04:22:32;;;;;;;;;;;;;;;9.11;100.00;99424.09;5046707;28;1209;-75
2023/10/28 04:24:57;;;;;;;;;;;;;;;9.09;100.00;99426.84;5046800;28;1179;-75
2023/10/28 04:27:23;;;;;;;;;;;;;;;9.08;100.00;99422.66;5049074;28;1069;-76
2023/10/28 04:29:48;;;;;;;;;;;;;;;9.07;100.00;99415.03;5048514;28;1088;-76
2023/10/28 04:32:17;;;;;;;;;;;;;;;9.07;100.00;99418.44;5050448;28;1898;-79
2023/10/28 04:34:42;;;;;;;;;;;;;;;9.07;100.00;99415.03;5046861;28;1328;-76
2023/10/28 04:37:08;;;;;;;;;;;;;;;9.05;100.00;99408.22;5043524;28;1210;-75
2023/10/28 04:39:33;;;;;;;;;;;;;;;9.04;100.00;99411.78;5046514;28;1206;-76
2023/10/28 04:41:58;;;;;;;;;;;;;;;9.03;100.00;99404.97;5045875;28;1070;-75
2023/10/28 04:44:23;;;;;;;;;;;;;;;9.01;100.00;99406.09;5049910;28;1215;-77
2023/10/28 04:46:48;;;;;;;;;;;;;;;9.01;100.00;99400.94;5047249;28;1167;-75
2023/10/28 04:49:14;;;;;;;;;;;;;;;8.99;100.00;99406.25;5048761;28;1169;-76
2023/10/28 04:51:39;;;;;;;;;;;;;;;8.99;100.00;99408.81;5045162;28;1385;-76
2023/10/28 04:54:04;;;;;;;;;;;;;;;8.98;100.00;99402.03;5043389;28;1898;-75
2023/10/28 04:56:29;;;;;;;;;;;;;;;8.96;100.00;99409.13;5048387;28;1258;-75
2023/10/28 04:58:54;;;;;;;;;;;;;;;8.96;100.00;99403.97;5047698;28;1337;-75
2023/10/28 05:01:21;;;;;;;;;;;;;;;8.95;100.00;99407.53;5042179;28;1384;-75
2023/10/28 05:03:46;;;;;;;;;;;;;;;8.94;100.00;99403.28;5043990;28;1422;-76
2023/10/28 05:06:11;;;;;;;;;;;;;;;8.93;100.00;99399.06;5041520;28;1204;-75
2023/10/28 05:08:36;;;;;;;;;;;;;;;8.92;100.00;99397.47;5040505;28;1333;-75
2023/10/28 05:11:02;;;;;;;;;;;;;;;8.91;100.00;99398.44;5043230;28;1103;-75
2023/10/28 05:13:28;;;;;;;;;;;;;;;8.90;100.00;99394.22;5039831;28;1894;-75
2023/10/28 05:15:53;;;;;;;;;;;;;;;8.90;100.00;99399.41;5039790;28;1323;-75
2023/10/28 05:18:18;;;;;;;;;;;;;;;8.90;100.00;99390.84;5042738;28;1326;-76
2023/10/28 05:20:44;;;;;;;;;;;;;;;8.89;100.00;99397.78;5047893;28;1343;-74
2023/10/28 05:23:09;;;;;;;;;;;;;;;8.90;100.00;99394.22;5045321;28;1296;-75
2023/10/28 05:25:34;;;;;;;;;;;;;;;8.88;100.00;99390.97;5041948;28;1290;-75
2023/10/28 05:27:59;;;;;;;;;;;;;;;8.88;100.00;99403.88;5044441;28;1324;-75
2023/10/28 05:30:25;;;;;;;;;;;;;;;8.86;100.00;99392.88;5041221;28;1321;-75
2023/10/28 05:32:50;;;;;;;;;;;;;;;8.86;100.00;99398.06;5041335;28;1898;-75
2023/10/28 05:35:15;;;;;;;;;;;;;;;8.86;100.00;99392.88;5045299;28;1109;-75
2023/10/28 05:37:41;;;;;;;;;;;;;;;8.86;100.00;99400.66;5038532;28;1506;-75
2023/10/28 05:40:10;;;;;;;;;;;;;;;8.85;100.00;99406.78;5048092;28;1187;-75
2023/10/28 05:42:35;;;;;;;;;;;;;;;8.84;100.00;99405.16;5045195;28;1274;-76
2023/10/28 05:45:00;;;;;;;;;;;;;;;8.83;100.00;99398.38;5045234;28;1078;-75
2023/10/28 05:47:26;;;;;;;;;;;;;;;8.84;100.00;99399.19;5046039;28;1387;-75
2023/10/28 05:49:51;;;;;;;;;;;;;;;8.84;100.00;99405.16;5042460;28;1204;-75
2023/10/28 05:52:20;;;;;;;;;;;;;;;8.85;100.00;99406.78;5044787;28;1949;-76
2023/10/28 05:54:45;;;;;;;;;;;;;;;8.85;100.00;99406.78;5046817;28;1313;-75
2023/10/28 05:57:10;;;;;;;;;;;;;;;8.86;100.00;99403.22;5047513;28;1561;-75
2023/10/28 05:59:35;;;;;;;;;;;;;;;8.86;100.00;99405.81;5043756;28;1079;-75
2023/10/28 06:02:03;;;;;;;;;;;;;;;8.86;100.00;99408.41;5040412;28;2557;-75
2023/10/28 06:04:31;;;;;;;;;;;;;;;8.87;100.00;99404.84;5044757;28;1233;-75
2023/10/28 06:06:56;;;;;;;;;;;;;;;8.86;100.00;99403.22;5042796;28;1245;-76
2023/10/28 06:09:23;;;;;;;;;;;;;;;8.86;100.00;99408.41;5039576;28;1283;-75
2023/10/28 06:11:48;;;;;;;;;;;;;;;8.86;100.00;99403.22;5041439;28;1438;-76
2023/10/28 06:14:13;;;;;;;;;;;;;;;8.87;100.00;99404.84;5038563;28;1913;-76
2023/10/28 06:16:39;;;;;;;;;;;;;;;8.87;100.00;99399.69;5034992;28;1394;-75
2023/10/28 06:19:04;;;;;;;;;;;;;;;8.87;100.00;99415.19;5037126;28;1511;-74
2023/10/28 06:21:29;;;;;;;;;;;;;;;8.87;100.00;99415.19;5037690;28;1118;-75
2023/10/28 06:23:54;;;;;;;;;;;;;;;8.87;100.00;99410.03;5039162;28;1100;-76
2023/10/28 06:26:20;;;;;;;;;;;;;;;8.89;100.00;99410.69;5042128;28;1079;-75
2023/10/28 06:28:45;;;;;;;;;;;;;;;8.89;100.00;99422.78;5044369;28;1119;-77
2023/10/28 06:31:10;;;;;;;;;;;;;;;8.89;100.00;99418.47;5050147;28;1132;-76
2023/10/28 06:33:36;;;;;;;;;;;;;;;8.89;100.00;99413.28;5045607;28;1906;-76
2023/10/28 06:36:01;;;;;;;;;;;;;;;8.90;100.00;99425.25;5042576;28;1361;-76
2023/10/28 06:38:28;;;;;;;;;;;;;;;8.91;100.00;99420.88;5043181;28;1211;-75
2023/10/28 06:40:53;;;;;;;;;;;;;;;8.92;100.00;99423.31;5047323;28;1235;-76
2023/10/28 06:43:18;;;;;;;;;;;;;;;8.92;100.00;99423.31;5047131;28;1545;-76
2023/10/28 06:45:43;;;;;;;;;;;;;;;8.94;100.00;99428.34;5045295;28;1024;-76
2023/10/28 06:48:12;;;;;;;;;;;;;;;8.94;100.00;99423.97;5048734;28;1278;-75
2023/10/28 06:50:37;;;;;;;;;;;;;;;8.92;100.00;99412.97;5046562;28;1298;-75
2023/10/28 06:53:02;;;;;;;;;;;;;;;8.94;100.00;99413.63;5037631;28;1922;-75
2023/10/28 06:55:28;;;;;;;;;;;;;;;8.95;100.00;99428.22;5046384;28;1611;-76
2023/10/28 06:57:54;;;;;;;;;;;;;;;8.95;100.00;99428.22;5047558;28;1520;-75
2023/10/28 07:00:23;;;;;;;;;;;;;;;8.97;100.00;99422.88;5049699;28;1639;-75
2023/10/28 07:02:48;;;;;;;;;;;;;;;8.98;100.00;99417.53;5052381;28;1405;-76
2023/10/28 07:05:16;;;;;;;;;;;;;;;8.99;100.00;99413.19;5051928;28;1267;-75
2023/10/28 07:07:41;;;;;;;;;;;;;;;9.00;100.00;99420.81;5047294;28;1255;-77
2023/10/28 07:10:07;;;;;;;;;;;;;;;9.00;100.00;99423.41;5043415;28;1398;-76
2023/10/28 07:12:32;;;;;;;;;;;;;;;9.03;100.00;99424.88;5049290;28;1930;-76
2023/10/28 07:14:58;;;;;;;;;;;;;;;9.02;100.00;99418.88;5046281;28;1435;-75
2023/10/28 07:17:23;;;;;;;;;;;;;;;9.04;100.00;99427.28;5045473;28;1304;-75
2023/10/28 07:19:49;;;;;;;;;;;;;;;9.05;100.00;99428.91;5050117;28;1197;-75
2023/10/28 07:22:16;;;;;;;;;;;;;;;9.08;100.00;99430.41;5052186;28;1301;-75
2023/10/28 07:24:42;;;;;;;;;;;;;;;9.09;100.00;99424.25;5041845;28;1068;-75
2023/10/28 07:27:08;;;;;;;;;;;;;;;9.12;100.00;99428.31;5044708;28;1562;-76
2023/10/28 07:29:33;;;;;;;;;;;;;;;9.14;100.00;99426.41;5052874;28;1112;-75
2023/10/28 07:31:58;;;;;;;;;;;;;;;9.15;100.00;99430.63;5049794;28;1341;-76
2023/10/28 07:34:23;;;;;;;;;;;;;;;9.17;100.00;99426.09;5040841;28;1922;-75
2023/10/28 07:36:48;;;;;;;;;;;;;;;9.19;100.00;99440.50;5055477;28;1161;-76
2023/10/28 07:39:15;;;;;;;;;;;;;;;9.22;100.00;99434.22;5040752;28;1285;-75
2023/10/28 07:41:40;;;;;;;;;;;;;;;9.23;100.00;99436.69;5050135;28;1024;-75
2023/10/28 07:44:05;;;;;;;;;;;;;;;9.26;100.00;99441.53;5046924;28;1335;-75
2023/10/28 07:46:31;;;;;;;;;;;;;;;9.29;100.00;99445.63;5053769;28;1174;-75
2023/10/28 07:48:56;;;;;;;;;;;;;;;9.30;100.00;99444.66;5050650;28;1394;-76
2023/10/28 07:51:22;;;;;;;;;;;;;;;9.33;100.00;99452.09;5042502;28;1237;-75
2023/10/28 07:53:50;;;;;;;;;;;;;;;9.37;100.00;99442.25;5047817;28;1973;-76
2023/10/28 07:56:16;;;;;;;;;;;;;;;9.38;100.00;99452.44;5049580;28;1398;-75
2023/10/28 07:58:41;;;;;;;;;;;;;;;9.43;100.00;99452.00;5048015;28;1204;-75
2023/10/28 08:01:14;;;;;;;;;;;;;;;9.48;100.00;99450.59;5049451;28;1372;-76
2023/10/28 08:03:39;;;;;;;;;;;;;;;9.54;100.00;99460.34;5051264;28;1335;-76
2023/10/28 08:06:08;;;;;;;;;;;;;;;9.61;100.00;99468.28;5049590;28;1317;-76
2023/10/28 08:08:33;;;;;;;;;;;;;;;9.68;100.00;99466.72;5048722;28;1266;-75
2023/10/28 08:11:08;;;;;;;;;;;;;;;9.76;100.00;99465.97;5055219;28;1297;-76
2023/10/28 08:13:34;;;;;;;;;;;;;;;9.80;100.00;99469.84;5056374;28;1964;-75
2023/10/28 08:15:59;;;;;;;;;;;;;;;9.82;100.00;99473.13;5044874;28;1022;-75
2023/10/28 08:18:24;;;;;;;;;;;;;;;9.84;100.00;99476.38;5055784;28;1235;-75
2023/10/28 08:20:49;;;;;;;;;;;;;;;9.87;100.00;99470.88;5048165;28;1367;-76
2023/10/28 08:23:17;;;;;;;;;;;;;;;9.89;100.00;99468.94;5050920;28;1219;-76
2023/10/28 08:25:42;;;;;;;;;;;;;;;9.91;100.00;99472.19;5048092;28;1270;-76
2023/10/28 08:28:07;;;;;;;;;;;;;;;9.93;100.00;99472.06;5050374;28;1302;-75
2023/10/28 08:30:35;;;;;;;;;;;;;;;9.96;100.00;99475.13;5049320;28;1242;-75
2023/10/28 08:33:00;;;;;;;;;;;;;;;10.01;100.00;99477.25;5051886;28;1897;-75
2023/10/28 08:35:28;;;;;;;;;;;;;;;10.05;100.00;99488.94;5053272;28;993;-75
2023/10/28 08:37:54;;;;;;;;;;;;;;;10.08;100.00;99489.44;5056046;28;1081;-75
2023/10/28 08:40:19;;;;;;;;;;;;;;;10.13;100.00;99482.97;5058609;28;1147;-75
2023/10/28 08:42:44;;;;;;;;;;;;;;;10.18;100.00;99486.72;5061298;28;1167;-75
2023/10/28 08:45:10;;;;;;;;;;;;;;;10.21;100.00;99488.22;5053372;28;1128;-76
2023/10/28 08:47:39;;;;;;;;;;;;;;;10.26;100.00;99483.38;5054291;28;1219;-76
2023/10/28 08:50:06;;;;;;;;;;;;;;;10.29;100.00;99496.03;5050992;28;1309;-76
2023/10/28 08:52:35;;;;;;;;;;;;;;;10.30;100.00;99497.66;5052700;28;1893;-76
2023/10/28 08:55:02;;;;;;;;;;;;;;;10.35;100.00;99495.41;5049939;28;1442;-75
2023/10/28 08:57:27;;;;;;;;;;;;;;;10.35;100.00;99505.78;5055679;28;1230;-75
2023/10/28 08:59:52;;;;;;;;;;;;;;;10.38;100.00;99505.50;5052756;28;1382;-75
2023/10/28 09:02:19;;;;;;;;;;;;;;;10.39;100.00;99501.94;5051640;28;1252;-75
2023/10/28 09:04:45;;;;;;;;;;;;;;;10.41;100.00;99494.78;5046794;28;1254;-75
2023/10/28 09:07:10;;;;;;;;;;;;;;;10.45;100.00;99506.47;5047971;28;1688;-75
2023/10/28 09:09:37;;;;;;;;;;;;;;;10.50;100.00;99493.06;5051059;28;1342;-75
2023/10/28 09:12:05;;;;;;;;;;;;;;;10.53;100.00;99503.91;5056603;28;1315;-75
2023/10/28 09:14:30;;;;;;;;;;;;;;;10.55;100.00;99504.56;5046195;28;1887;-75
2023/10/28 09:17:00;;;;;;;;;;;;;;;10.59;100.00;99513.66;5049485;28;1363;-76
2023/10/28 09:19:25;;;;;;;;;;;;;;;10.60;100.00;99510.06;5044817;28;1166;-76
2023/10/28 09:21:51;;;;;;;;;;;;;;;10.63;100.00;99514.97;5055715;28;1755;-76
2023/10/28 09:24:16;;;;;;;;;;;;;;;10.65;100.00;99512.19;5049277;28;1262;-76
2023/10/28 09:26:42;;;;;;;;;;;;;;;10.67;100.00;99514.63;5055544;28;1143;-76
2023/10/28 09:29:07;;;;;;;;;;;;;;;10.68;100.00;99518.88;5054076;28;1148;-76
2023/10/28 09:31:33;;;;;;;;;;;;;;;10.73;100.00;99514.03;5054864;28;1405;-76
2023/10/28 09:33:59;;;;;;;;;;;;;;;10.79;100.00;99513.41;5050487;28;1955;-75
2023/10/28 09:36:24;;;;;;;;;;;;;;;10.79;100.00;99510.78;5054649;28;1641;-75
2023/10/28 09:38:50;;;;;;;;;;;;;;;10.83;100.00;99504.31;5043258;28;1327;-75
2023/10/28 09:41:18;;;;;;;;;;;;;;;10.85;100.00;99512.75;5058234;28;1374;-75
2023/10/28 09:43:44;;;;;;;;;;;;;;;10.88;100.00;99512.41;5047051;28;1254;-75
2023/10/28 09:46:10;;;;;;;;;;;;;;;10.90;100.00;99515.69;5050154;28;1223;-75
2023/10/28 09:48:38;;;;;;;;;;;;;;;10.93;100.00;99514.53;5042202;28;1332;-75
2023/10/28 09:51:04;;;;;;;;;;;;;;;10.95;100.00;99523.78;5056824;28;1318;-75
2023/10/28 09:53:31;;;;;;;;;;;;;;;10.97;100.00;99519.25;5045394;28;1906;-75
2023/10/28 09:55:56;;;;;;;;;;;;;;;10.97;100.00;99524.44;5049490;28;1510;-76
2023/10/28 09:58:24;;;;;;;;;;;;;;;11.00;100.00;99516.31;5053622;28;1041;-76
2023/10/28 10:00:50;;;;;;;;;;;;;;;10.97;100.00;99527.03;5048619;28;1222;-75
2023/10/28 10:03:26;;;;;;;;;;;;;;;11.00;100.00;99516.31;5050486;28;1175;-75
2023/10/28 10:05:53;;;;;;;;;;;;;;;11.02;100.00;99526.56;5045108;28;1459;-76
2023/10/28 10:08:22;;;;;;;;;;;;;;;11.03;100.00;99521.22;5048116;28;1187;-75
2023/10/28 10:10:48;;;;;;;;;;;;;;;11.05;100.00;99521.03;5055697;28;1319;-75
2023/10/28 10:13:16;;;;;;;;;;;;;;;11.07;100.00;99519.94;5050627;28;1898;-76
2023/10/28 10:15:47;;;;;;;;;;;;;;;11.12;100.00;99522.81;5053838;28;1331;-75
2023/10/28 10:18:21;;;;;;;;;;;;;;;11.20;100.00;99526.44;5048621;28;1133;-75
2023/10/28 10:20:46;;;;;;;;;;;;;;;11.25;100.00;99518.97;5054265;28;1286;-75
2023/10/28 10:23:11;;;;;;;;;;;;;;;11.29;100.00;99525.44;5053119;28;1415;-75
2023/10/28 10:25:39;;;;;;;;;;;;;;;11.38;100.00;99519.28;5048228;28;1157;-75
2023/10/28 10:28:12;;;;;;;;;;;;;;;11.46;100.00;99527.06;5050703;28;1350;-75
2023/10/28 10:30:37;;;;;;;;;;;;;;;11.53;100.00;99528.06;5046183;28;1463;-75
2023/10/28 10:33:32;;;;;;;;;;;;;;;11.58;100.00;99525.75;5054956;28;2477;-75
2023/10/28 10:36:40;;;;;;;;;;;;;;;;;;;;;
2023/10/28 10:39:11;;;;;;;;;;;;;;;11.71;100.00;99525.28;4998303;28;1259;-74
2023/10/28 10:41:36;;;;;;;;;;;;;;;11.83;100.00;99523.19;5008994;28;1322;-74
2023/10/28 10:44:20;;;;;;;;;;;;;;;11.79;100.00;99521.84;5043883;28;1464;-74
2023/10/28 10:46:46;;;;;;;;;;;;;;;11.75;100.00;99525.75;5043557;28;1447;-75
2023/10/28 10:49:11;;;;;;;;;;;;;;;11.84;100.00;99530.00;5039042;28;1264;-74
2023/10/28 10:51:38;;;;;;;;;;;;;;;11.75;100.00;99526.56;5039494;28;1271;-74
2023/10/28 10:54:04;;;;;;;;;;;;;;;11.78;100.00;99526.25;5044342;28;1902;-75
2023/10/28 10:56:29;;;;;;;;;;;;;;;11.80;100.00;99521.69;5057756;28;1198;-75
2023/10/28 10:58:55;;;;;;;;;;;;;;;11.85;100.00;99523.81;5054806;28;1154;-74
2023/10/28 11:01:20;;;;;;;;;;;;;;;11.88;100.00;99515.72;5050706;28;1402;-74
2023/10/28 11:03:45;;;;;;;;;;;;;;;11.85;100.00;99516.03;5050837;28;1242;-74
2023/10/28 11:06:12;;;;;;;;;;;;;;;11.89;100.00;99522.53;5051126;28;1264;-77
2023/10/28 11:08:37;;;;;;;;;;;;;;;11.91;100.00;99528.34;5053703;28;1345;-74
2023/10/28 11:11:03;;;;;;;;;;;;;;;11.98;100.00;99531.91;5048700;28;1329;-74
2023/10/28 11:13:29;;;;;;;;;;;;;;;12.01;100.00;99521.19;5049680;28;1902;-75
2023/10/28 11:15:54;;;;;;;;;;;;;;;12.06;100.00;99518.91;5043173;28;1188;-75
2023/10/28 11:18:19;;;;;;;;;;;;;;;12.12;100.00;99512.25;5048295;28;1052;-75
2023/10/28 11:20:45;;;;;;;;;;;;;;;12.17;100.00;99508.16;5049906;28;1186;-74
2023/10/28 11:23:10;;;;;;;;;;;;;;;12.13;100.00;99512.06;5054981;28;1192;-75
2023/10/28 11:25:36;;;;;;;;;;;;;;;12.23;100.00;99510.09;5047492;28;1331;-74
2023/10/28 11:28:08;;;;;;;;;;;;;;;12.17;100.00;99510.75;5046262;28;1121;-74
2023/10/28 11:30:33;;;;;;;;;;;;;;;12.15;100.00;99512.69;5045312;28;1391;-74
2023/10/28 11:33:00;;;;;;;;;;;;;;;12.17;100.00;99518.56;5046716;28;1989;-74
2023/10/28 11:35:29;;;;;;;;;;;;;;;12.26;100.00;99514.13;5038556;28;1231;-75
2023/10/28 11:37:54;;;;;;;;;;;;;;;12.32;100.00;99523.03;5044217;28;998;-75
2023/10/28 11:40:21;;;;;;;;;;;;;;;12.39;100.00;99524.81;5048935;28;1164;-75
2023/10/28 11:42:46;;;;;;;;;;;;;;;12.42;100.00;99528.88;5049266;28;1275;-74
2023/10/28 11:45:11;;;;;;;;;;;;;;;12.44;100.00;99526.91;5046202;28;1203;-76
2023/10/28 11:47:36;;;;;;;;;;;;;;;12.40;100.00;99530.84;5048524;28;1443;-74
2023/10/28 11:50:02;;;;;;;;;;;;;;;12.42;100.00;99523.66;5045759;28;1171;-74
2023/10/28 11:52:27;;;;;;;;;;;;;;;12.49;100.00;99519.41;5052327;28;1897;-74
2023/10/28 11:54:53;;;;;;;;;;;;;;;12.56;100.00;99530.78;5057263;28;1090;-74
2023/10/28 11:57:18;;;;;;;;;;;;;;;12.58;100.00;99523.59;5059780;28;1278;-74
2023/10/28 11:59:43;;;;;;;;;;;;;;;12.60;100.00;99526.81;5047535;28;1250;-73
2023/10/28 12:02:09;;;;;;;;;;;;;;;12.57;100.00;99516.78;5054297;28;1265;-74
2023/10/28 12:04:34;;;;;;;;;;;;;;;12.53;100.00;99531.09;5057449;28;1164;-74
2023/10/28 12:06:59;;;;;;;;;;;;;;;12.53;100.00;99525.91;5055432;28;1216;-76
2023/10/28 12:09:25;;;;;;;;;;;;;;;12.52;100.00;99529.47;5049461;28;1268;-75
2023/10/28 12:11:51;;;;;;;;;;;;;;;12.54;100.00;99524.91;5052380;28;1344;-76
2023/10/28 12:14:16;;;;;;;;;;;;;;;12.54;100.00;99522.31;5053784;28;1898;-76
2023/10/28 12:16:41;;;;;;;;;;;;;;;12.60;100.00;99519.03;5052203;28;1367;-74
2023/10/28 12:19:07;;;;;;;;;;;;;;;12.63;100.00;99518.69;5058206;28;1517;-75
2023/10/28 12:21:33;;;;;;;;;;;;;;;12.68;100.00;99516.41;5056125;28;1204;-74
2023/10/28 12:23:58;;;;;;;;;;;;;;;12.80;100.00;99521.22;5058262;28;1258;-74
2023/10/28 12:26:24;;;;;;;;;;;;;;;12.83;100.00;99529.47;5057909;28;1330;-76
2023/10/28 12:28:49;;;;;;;;;;;;;;;12.87;100.00;99537.75;5053391;28;1155;-75
2023/10/28 12:31:18;;;;;;;;;;;;;;;12.91;100.00;99528.63;5054096;28;1292;-74
2023/10/28 12:33:43;;;;;;;;;;;;;;;12.93;100.00;99531.88;5050214;28;1968;-75
2023/10/28 12:36:10;;;;;;;;;;;;;;;13.02;100.00;99530.84;5048582;28;1291;-74
2023/10/28 12:38:35;;;;;;;;;;;;;;;13.08;100.00;99524.94;5049140;28;1140;-74
2023/10/28 12:41:00;;;;;;;;;;;;;;;13.11;100.00;99540.22;5053819;28;1292;-75
2023/10/28 12:43:27;;;;;;;;;;;;;;;13.18;99.02;99543.72;5047839;28;1480;-73
2023/10/28 12:45:52;;;;;;;;;;;;;;;13.12;99.31;99546.22;5047942;28;1219;-75
2023/10/28 12:48:18;;;;;;;;;;;;;;;13.08;97.43;99560.59;5051007;28;1220;-74
2023/10/28 12:50:43;;;;;;;;;;;;;;;13.04;98.80;99560.09;5047988;28;1325;-74